createdAt,value
2022-10-28T00:00:29.476Z,128.20
2022-10-28T00:03:54.685Z,119.40
2022-10-28T00:07:17.336Z,113.07
2022-10-28T00:10:41.787Z,101.97
2022-10-28T00:14:06.947Z,105.20
2022-10-28T00:17:29.910Z,113.70
2022-10-28T00:20:52.564Z,114.00
2022-10-28T00:24:16.441Z,156.98
2022-10-28T00:27:40.946Z,103.72
2022-10-28T00:31:11.576Z,155.85
2022-10-28T00:34:34.643Z,134.68
2022-10-28T00:37:57.397Z,95.70
2022-10-28T00:41:21.790Z,138.20
2022-10-28T00:45:00.721Z,127.53
2022-10-28T00:48:23.473Z,126.63
2022-10-28T00:51:48.584Z,87.53
2022-10-28T00:55:11.954Z,96.70
2022-10-28T00:58:35.228Z,103.75
2022-10-28T01:02:00.156Z,86.40
2022-10-28T01:05:28.008Z,81.43
2022-10-28T01:08:50.559Z,108.25
2022-10-28T01:12:23.960Z,89.45
2022-10-28T01:15:52.654Z,107.57
2022-10-28T01:19:48.174Z,102.65
2022-10-28T01:23:17.996Z,79.60
2022-10-28T01:27:24.816Z,97.18
2022-10-28T01:31:18.162Z,99.72
2022-10-28T01:34:50.849Z,89.82
2022-10-28T01:38:30.603Z,99.07
2022-10-28T01:42:00.733Z,75.63
2022-10-28T01:45:29.937Z,106.32
2022-10-28T01:52:24.147Z,75.38
2022-10-28T01:55:51.828Z,88.25
2022-10-28T01:59:18.465Z,78.63
2022-10-28T02:02:43.373Z,72.75
2022-10-28T02:06:16.363Z,83.05
2022-10-28T02:09:57.245Z,73.82
2022-10-28T02:13:23.838Z,121.28
2022-10-28T02:16:51.668Z,101.93
2022-10-28T02:20:21.996Z,95.07
2022-10-28T02:23:50.695Z,87.13
2022-10-28T02:27:23.280Z,106.55
2022-10-28T02:30:51.974Z,105.45
2022-10-28T02:34:19.752Z,85.90
2022-10-28T02:37:44.244Z,90.38
2022-10-28T02:41:12.628Z,97.18
2022-10-28T02:44:41.014Z,111.78
2022-10-28T02:48:09.101Z,90.35
2022-10-28T02:51:36.665Z,92.57
2022-10-28T02:55:00.962Z,76.93
2022-10-28T02:58:26.064Z,78.95
2022-10-28T03:01:49.122Z,73.00
2022-10-28T03:05:12.393Z,88.15
2022-10-28T03:08:34.861Z,80.95
2022-10-28T03:11:57.598Z,77.25
2022-10-28T03:15:21.790Z,83.00
2022-10-28T03:18:44.747Z,83.30
2022-10-28T03:22:07.707Z,105.43
2022-10-28T03:25:30.982Z,92.78
2022-10-28T03:28:54.035Z,81.32
2022-10-28T03:32:18.788Z,80.43
2022-10-28T03:35:41.795Z,91.88
2022-10-28T03:39:05.063Z,86.15
2022-10-28T03:42:28.741Z,97.38
2022-10-28T03:45:51.925Z,84.72
2022-10-28T03:49:16.198Z,96.05
2022-10-28T03:52:39.165Z,97.13
2022-10-28T03:56:03.449Z,81.70
2022-10-28T03:59:27.059Z,100.03
2022-10-28T04:02:53.188Z,93.70
2022-10-28T04:06:18.055Z,80.80
2022-10-28T04:09:42.073Z,76.82
2022-10-28T04:13:07.060Z,104.78
2022-10-28T04:16:29.808Z,96.35
2022-10-28T04:19:52.774Z,87.20
2022-10-28T04:23:18.707Z,90.95
2022-10-28T04:26:41.661Z,109.28
2022-10-28T04:30:05.546Z,98.53
2022-10-28T04:33:28.608Z,80.57
2022-10-28T04:36:51.464Z,88.28
2022-10-28T04:40:16.166Z,74.10
2022-10-28T04:43:38.817Z,110.85
2022-10-28T04:47:01.428Z,83.72
2022-10-28T04:50:24.223Z,83.80
2022-10-28T04:53:47.589Z,85.68
2022-10-28T04:57:12.088Z,83.13
2022-10-28T05:00:34.652Z,103.05
2022-10-28T05:03:57.389Z,97.82
2022-10-28T05:07:22.759Z,75.95
2022-10-28T05:10:50.375Z,74.47
2022-10-28T05:14:14.980Z,80.75
2022-10-28T05:17:37.889Z,82.20
2022-10-28T05:21:01.107Z,72.90
2022-10-28T05:24:26.622Z,70.47
2022-10-28T05:27:49.683Z,69.40
2022-10-28T05:31:13.950Z,92.32
2022-10-28T05:34:36.909Z,65.35
2022-10-28T05:38:00.108Z,71.00
2022-10-28T05:41:23.426Z,67.85
2022-10-28T05:44:46.124Z,68.38
2022-10-28T05:48:11.339Z,69.10
2022-10-28T05:51:34.394Z,59.75
2022-10-28T05:54:59.915Z,50.92
2022-10-28T05:58:22.779Z,54.78
2022-10-28T06:01:45.903Z,59.05
2022-10-28T06:05:11.256Z,69.65
2022-10-28T06:08:34.108Z,50.28
2022-10-28T06:11:55.127Z,56.15
2022-10-28T06:15:18.294Z,42.60
2022-10-28T06:18:40.956Z,50.15
2022-10-28T06:22:05.348Z,36.33
2022-10-28T06:25:28.613Z,46.13
2022-10-28T06:28:52.600Z,63.63
2022-10-28T06:32:15.372Z,54.30
2022-10-28T06:35:39.962Z,47.75
2022-10-28T06:39:05.180Z,41.90
2022-10-28T06:42:27.737Z,44.28
2022-10-28T06:45:54.432Z,48.88
2022-10-28T06:49:18.853Z,87.80
2022-10-28T06:52:41.553Z,41.90
2022-10-28T06:56:06.928Z,52.17
2022-10-28T06:59:29.789Z,38.55
2022-10-28T07:02:53.003Z,43.83
2022-10-28T07:06:17.177Z,43.33
2022-10-28T07:09:40.110Z,33.90
2022-10-28T07:13:04.101Z,27.15
2022-10-28T07:16:27.163Z,48.42
2022-10-28T07:19:50.536Z,31.20
2022-10-28T07:23:13.911Z,24.55
2022-10-28T07:26:36.666Z,41.75
2022-10-28T07:30:01.000Z,40.25
2022-10-28T07:33:24.125Z,32.55
2022-10-28T07:36:47.400Z,45.70
2022-10-28T07:40:12.007Z,34.10
2022-10-28T07:43:39.150Z,24.05
2022-10-28T07:47:03.543Z,23.77
2022-10-28T07:50:29.878Z,19.08
2022-10-28T07:53:52.856Z,18.60
2022-10-28T07:57:15.599Z,21.10
2022-10-28T08:00:38.630Z,21.70
2022-10-28T08:04:03.349Z,28.35
2022-10-28T08:07:25.896Z,24.52
2022-10-28T08:10:48.431Z,17.90
2022-10-28T08:14:11.188Z,25.80
2022-10-28T08:17:33.932Z,15.45
2022-10-28T08:24:29.189Z,29.10
2022-10-28T08:27:52.126Z,30.73
2022-10-28T08:31:15.291Z,38.03
2022-10-28T08:34:40.945Z,25.30
2022-10-28T08:38:08.477Z,22.52
2022-10-28T08:41:37.376Z,37.58
2022-10-28T08:45:25.752Z,39.10
2022-10-28T08:48:48.592Z,22.52
2022-10-28T08:52:25.178Z,30.00
2022-10-28T08:55:52.643Z,29.50
2022-10-28T08:59:20.996Z,30.23
2022-10-28T09:02:57.667Z,25.00
2022-10-28T09:06:20.983Z,23.58
2022-10-28T09:09:43.530Z,34.33
2022-10-28T09:13:19.901Z,23.10
2022-10-28T09:16:48.593Z,34.30
2022-10-28T09:27:58.506Z,21.88
2022-10-28T09:31:32.320Z,23.70
2022-10-28T09:35:01.841Z,29.48
2022-10-28T09:38:29.199Z,37.88
2022-10-28T09:45:40.718Z,26.85
2022-10-28T09:53:01.051Z,33.55
2022-10-28T10:00:04.559Z,26.63
2022-10-28T10:03:27.643Z,29.38
2022-10-28T10:06:57.053Z,29.05
2022-10-28T10:14:10.111Z,26.33
2022-10-28T10:17:41.267Z,21.65
2022-10-28T10:21:04.532Z,29.63
2022-10-28T10:24:32.927Z,31.33
2022-10-28T10:28:02.839Z,19.60
2022-10-28T10:31:30.161Z,15.15
2022-10-28T10:34:59.307Z,15.95
2022-10-28T10:42:16.771Z,12.82
2022-10-28T10:45:40.031Z,21.35
2022-10-28T10:49:16.099Z,18.02
2022-10-28T10:52:39.060Z,16.25
2022-10-28T10:56:04.170Z,23.73
2022-10-28T10:59:32.461Z,15.75
2022-10-28T11:06:39.882Z,25.75
2022-10-28T11:10:03.864Z,28.48
2022-10-28T11:18:22.972Z,20.50
2022-10-28T11:22:00.492Z,21.67
2022-10-28T11:29:18.035Z,19.42
2022-10-28T11:33:02.173Z,12.65
2022-10-28T11:40:33.989Z,22.38
2022-10-28T11:44:04.712Z,17.38
2022-10-28T11:47:56.334Z,24.08
2022-10-28T11:51:33.247Z,13.20
2022-10-28T12:03:03.323Z,21.05
2022-10-28T12:06:38.277Z,20.48
2022-10-28T12:10:35.225Z,36.15
2022-10-28T12:14:07.091Z,19.27
2022-10-28T12:17:38.872Z,19.02
2022-10-28T12:24:50.139Z,17.77
2022-10-28T12:28:22.011Z,13.57
2022-10-28T12:35:37.049Z,19.42
2022-10-28T12:39:04.730Z,27.73
2022-10-28T12:42:34.537Z,18.27
2022-10-28T12:49:51.796Z,23.23
2022-10-28T12:53:33.492Z,18.02
2022-10-28T12:57:05.359Z,15.82
2022-10-28T13:00:31.495Z,20.92
2022-10-28T13:03:56.298Z,23.63
2022-10-28T13:07:35.344Z,20.30
2022-10-28T13:14:55.198Z,22.10
2022-10-28T13:18:45.051Z,23.73
2022-10-28T13:22:35.859Z,22.88
2022-10-28T13:26:06.915Z,18.33
2022-10-28T13:29:33.176Z,22.35
2022-10-28T13:33:07.160Z,65.35
2022-10-28T13:40:45.254Z,24.05
2022-10-28T13:44:31.101Z,28.10
2022-10-28T13:47:54.219Z,19.15
2022-10-28T13:51:33.914Z,27.85
2022-10-28T13:54:59.331Z,24.30
2022-10-28T14:02:34.740Z,38.30
2022-10-28T14:09:43.568Z,25.63
2022-10-28T14:16:57.340Z,32.30
2022-10-28T14:24:16.750Z,23.15
2022-10-28T14:27:44.681Z,28.52
2022-10-28T14:31:36.149Z,46.00
2022-10-28T14:39:19.421Z,47.20
2022-10-28T14:50:48.679Z,69.55
2022-10-28T14:54:17.478Z,36.75
2022-10-28T14:57:40.434Z,66.25
2022-10-28T15:01:22.264Z,64.55
2022-10-28T15:04:47.660Z,35.50
2022-10-28T15:15:37.702Z,40.72
2022-10-28T15:19:00.971Z,28.25
2022-10-28T15:22:25.153Z,27.02
2022-10-28T15:25:47.910Z,43.95
2022-10-28T15:29:14.150Z,33.53
2022-10-28T15:32:37.627Z,26.15
2022-10-28T15:36:18.269Z,32.30
2022-10-28T15:39:41.661Z,18.80
2022-10-28T15:43:06.521Z,20.60
2022-10-28T15:46:32.909Z,28.17
2022-10-28T15:50:22.178Z,24.60
2022-10-28T15:53:45.863Z,36.97
2022-10-28T15:57:24.699Z,39.40
2022-10-28T16:04:45.946Z,32.10
2022-10-28T16:08:16.589Z,49.08
2022-10-28T16:11:44.558Z,35.60
2022-10-28T16:15:15.511Z,77.10
2022-10-28T16:22:29.793Z,133.20
2022-10-28T16:25:52.549Z,56.95
2022-10-28T16:36:35.319Z,225.45
2022-10-28T16:40:00.016Z,164.48
2022-10-28T16:43:24.834Z,126.32
2022-10-28T16:46:50.356Z,162.07
2022-10-28T16:50:14.331Z,143.18
2022-10-28T16:53:37.193Z,126.88
2022-10-28T16:57:01.376Z,156.45
2022-10-28T17:00:24.539Z,82.65
2022-10-28T17:03:47.396Z,62.05
2022-10-28T17:07:15.476Z,44.25
2022-10-28T17:14:21.779Z,38.25
2022-10-28T17:21:27.977Z,124.85
2022-10-28T17:24:51.039Z,121.45
2022-10-28T17:28:14.405Z,75.85
2022-10-28T17:31:41.260Z,77.43
2022-10-28T17:35:04.219Z,92.70
2022-10-28T17:42:07.030Z,144.88
2022-10-28T17:45:29.679Z,89.45
2022-10-28T17:48:53.986Z,58.95
2022-10-28T17:55:59.974Z,58.55
2022-10-28T17:59:22.621Z,28.15
2022-10-28T18:06:28.298Z,60.88
2022-10-28T18:09:51.980Z,96.72
2022-10-28T18:16:55.199Z,79.78
2022-10-28T18:20:18.063Z,92.25
2022-10-28T18:23:42.971Z,51.70
2022-10-28T18:27:07.064Z,72.25
2022-10-28T18:30:30.120Z,42.17
2022-10-28T18:33:52.666Z,30.40
2022-10-28T18:37:17.227Z,53.97
2022-10-28T18:40:49.333Z,50.42
2022-10-28T18:44:14.757Z,31.42
2022-10-28T18:47:37.918Z,28.98
2022-10-28T18:51:02.106Z,32.42
2022-10-28T18:54:24.963Z,32.00
2022-10-28T18:57:51.921Z,44.13
2022-10-28T19:01:16.442Z,31.75
2022-10-28T19:04:39.586Z,28.77
2022-10-28T19:08:02.743Z,35.65
2022-10-28T19:11:30.433Z,36.67
2022-10-28T19:14:54.395Z,36.40
2022-10-28T19:18:19.343Z,43.13
2022-10-28T19:21:42.577Z,37.90
2022-10-28T19:28:47.944Z,42.40
2022-10-28T19:35:52.198Z,47.42
2022-10-28T19:39:14.649Z,44.05
2022-10-28T19:42:38.784Z,55.50
2022-10-28T19:46:06.398Z,50.10
2022-10-28T19:49:37.261Z,53.65
2022-10-28T19:53:02.051Z,44.95
2022-10-28T19:56:25.011Z,54.28
2022-10-28T20:03:34.320Z,57.72
2022-10-28T20:07:00.725Z,68.90
2022-10-28T20:10:29.214Z,49.38
2022-10-28T20:17:34.788Z,58.75
2022-10-28T20:20:57.751Z,68.05
2022-10-28T20:24:22.250Z,61.55
2022-10-28T20:27:45.208Z,63.60
2022-10-28T20:31:09.092Z,82.03
2022-10-28T20:34:32.667Z,80.38
2022-10-28T20:37:56.002Z,83.63
2022-10-28T20:41:20.216Z,79.78
2022-10-28T20:48:24.267Z,66.10
2022-10-28T20:51:47.021Z,91.03
2022-10-28T20:55:10.595Z,91.70
2022-10-28T20:58:36.832Z,79.97
2022-10-28T21:01:59.901Z,73.88
2022-10-28T21:05:22.648Z,91.28
2022-10-28T21:08:46.429Z,72.43
2022-10-28T21:12:09.697Z,85.05
2022-10-28T21:15:36.447Z,74.90
2022-10-28T21:19:00.698Z,85.25
2022-10-28T21:22:23.905Z,83.70
2022-10-28T21:25:54.740Z,74.32
2022-10-28T21:29:17.699Z,82.85
2022-10-28T21:32:42.194Z,71.50
2022-10-28T21:36:07.409Z,61.65
2022-10-28T21:39:30.887Z,72.03
2022-10-28T21:42:54.147Z,84.53
2022-10-28T21:57:20.469Z,83.55
2022-10-28T22:00:44.144Z,75.75
2022-10-28T22:04:07.930Z,94.35
2022-10-28T22:11:14.846Z,71.45
2022-10-28T22:14:37.594Z,87.80
2022-10-28T22:18:00.957Z,100.28
2022-10-28T22:21:25.048Z,107.50
2022-10-28T22:24:49.132Z,82.90
2022-10-28T22:35:32.209Z,84.05
2022-10-28T22:38:55.321Z,81.95
2022-10-28T22:42:19.876Z,82.20
2022-10-28T22:45:42.829Z,92.70
2022-10-28T22:49:06.509Z,89.63
2022-10-28T22:52:29.322Z,88.47
2022-10-28T22:55:54.073Z,89.63
2022-10-28T22:59:18.458Z,74.55
2022-10-28T23:02:41.408Z,60.65
2022-10-28T23:06:04.276Z,58.80
2022-10-28T23:09:26.934Z,63.22
2022-10-28T23:20:12.580Z,53.58
2022-10-28T23:23:35.338Z,84.63
2022-10-28T23:30:25.448Z,50.85
2022-10-28T23:33:50.560Z,46.97
2022-10-28T23:37:13.313Z,37.63
2022-10-28T23:40:35.971Z,63.55
2022-10-28T23:44:01.079Z,50.08
2022-10-28T23:51:06.363Z,60.53
2022-10-28T23:58:09.269Z,78.05
